Terminal Aerodrome Forecast
Issued by NWS Detroit/Pontiac, MI

Home | Current Version | Previous Version | Text Only | Print | Product List | Glossary On
Versions: 1 2 3 4 5 6 7 8 9 10 11 12 13 14 15 16 17 18 19 20 21 22 23 24 25 26 27 28 29 30
346
FTUS43 KDTX 042324
TAFDTW
TAF
KDTW 042324Z 0500/0606 23005KT P6SM SCT025 OVC050
      TEMPO 0500/0502 6SM -SHRA SCT015 OVC025
     FM050200 07004KT P6SM SCT035 OVC060
      TEMPO 0502/0505 5SM -SHRA OVC035
     FM050600 01005KT P6SM SCT060 BKN150
     FM050800 36010KT P6SM BKN200
     FM051600 36013G20KT P6SM BKN050
     FM060100 35006KT P6SM SKC=

USA.gov is the U.S. government's official web portal to all federal, state and local government web resources and services.